createdAt,value
2022-10-01T00:02:15.713Z,22.75
2022-10-01T00:04:44.311Z,22.81
2022-10-01T00:07:15.289Z,22.86
2022-10-01T00:09:44.420Z,22.91
2022-10-01T00:12:15.953Z,22.88
2022-10-01T00:14:45.132Z,22.83
2022-10-01T00:17:13.804Z,22.68
2022-10-01T00:19:42.452Z,22.62
2022-10-01T00:22:11.360Z,22.48
2022-10-01T00:24:40.850Z,22.45
2022-10-01T00:27:10.971Z,22.41
2022-10-01T00:29:41.222Z,22.57
2022-10-01T00:32:09.998Z,22.38
2022-10-01T00:34:38.656Z,22.53
2022-10-01T00:37:10.392Z,22.66
2022-10-01T00:39:39.192Z,22.71
2022-10-01T00:42:18.219Z,22.69
2022-10-01T00:44:49.262Z,22.58
2022-10-01T00:47:27.478Z,22.71
2022-10-01T00:50:02.213Z,22.65
2022-10-01T00:52:34.415Z,22.66
2022-10-01T00:55:09.162Z,22.71
2022-10-01T00:57:37.950Z,22.71
2022-10-01T01:00:12.284Z,22.72
2022-10-01T01:02:41.386Z,22.53
2022-10-01T01:05:13.619Z,22.48
2022-10-01T01:07:46.082Z,22.45
2022-10-01T01:10:17.635Z,22.52
2022-10-01T01:13:01.724Z,22.42
2022-10-01T01:15:38.086Z,22.46
2022-10-01T01:18:11.995Z,22.46
2022-10-01T01:21:20.033Z,22.48
2022-10-01T01:24:13.497Z,22.43
2022-10-01T01:26:54.190Z,22.43
2022-10-01T01:29:30.664Z,22.43
2022-10-01T01:32:12.616Z,22.48
2022-10-01T01:34:47.997Z,22.56
2022-10-01T01:37:20.722Z,22.52
2022-10-01T01:39:54.605Z,22.58
2022-10-01T01:42:31.189Z,22.74
2022-10-01T01:45:03.896Z,22.71
2022-10-01T01:47:34.352Z,22.72
2022-10-01T01:50:05.566Z,22.77
2022-10-01T01:52:35.152Z,22.84
2022-10-01T01:55:07.387Z,22.78
2022-10-01T01:57:40.546Z,22.87
2022-10-01T02:00:12.826Z,22.92
2022-10-01T02:02:46.585Z,22.97
2022-10-01T02:05:19.054Z,22.92
2022-10-01T02:08:12.907Z,22.89
2022-10-01T02:11:06.382Z,22.74
2022-10-01T02:13:48.556Z,22.75
2022-10-01T02:16:26.264Z,22.74
2022-10-01T02:19:02.216Z,22.80
2022-10-01T02:21:36.379Z,22.83
2022-10-01T02:24:11.307Z,22.89
2022-10-01T02:26:40.507Z,22.84
2022-10-01T02:29:13.727Z,22.87
2022-10-01T02:31:43.989Z,22.76
2022-10-01T02:34:20.004Z,22.83
2022-10-01T02:36:50.388Z,22.74
2022-10-01T02:39:23.670Z,22.75
2022-10-01T02:41:55.284Z,22.76
2022-10-01T02:44:30.322Z,22.84
2022-10-01T02:47:07.701Z,22.86
2022-10-01T02:49:41.420Z,22.82
2022-10-01T02:52:18.108Z,22.78
2022-10-01T02:54:51.322Z,22.82
2022-10-01T02:57:29.548Z,22.70
2022-10-01T03:00:00.367Z,22.74
2022-10-01T03:02:32.952Z,22.75
2022-10-01T03:05:02.176Z,22.93
2022-10-01T03:07:32.412Z,22.89
2022-10-01T03:10:00.655Z,22.93
2022-10-01T03:12:29.141Z,22.90
2022-10-01T03:14:57.551Z,22.91
2022-10-01T03:17:26.285Z,22.88
2022-10-01T03:19:56.205Z,22.89
2022-10-01T03:22:25.192Z,23.00
2022-10-01T03:24:54.398Z,23.13
2022-10-01T03:27:23.869Z,23.15
2022-10-01T03:29:52.735Z,23.15
2022-10-01T03:32:21.304Z,23.26
2022-10-01T03:34:50.023Z,23.32
2022-10-01T03:37:19.763Z,23.29
2022-10-01T03:39:48.209Z,23.42
2022-10-01T03:42:16.738Z,23.45
2022-10-01T03:44:45.352Z,23.54
2022-10-01T03:47:13.665Z,23.38
2022-10-01T03:49:42.174Z,23.46
2022-10-01T03:52:10.546Z,23.38
2022-10-01T03:54:40.479Z,23.31
2022-10-01T03:57:09.014Z,23.36
2022-10-01T03:59:37.317Z,23.37
2022-10-01T04:02:06.012Z,23.27
2022-10-01T04:04:34.647Z,23.30
2022-10-01T04:07:02.908Z,23.27
2022-10-01T04:09:31.213Z,23.30
2022-10-01T04:12:01.227Z,23.34
2022-10-01T04:14:29.591Z,23.43
2022-10-01T04:16:59.079Z,23.42
2022-10-01T04:19:27.889Z,23.23
2022-10-01T04:21:56.586Z,23.25
2022-10-01T04:24:24.913Z,23.35
2022-10-01T04:26:53.695Z,23.42
2022-10-01T04:29:23.337Z,23.53
2022-10-01T04:31:53.454Z,23.53
2022-10-01T04:34:42.487Z,23.52
2022-10-01T04:37:11.221Z,23.59
2022-10-01T04:39:39.757Z,23.59
2022-10-01T04:42:08.197Z,23.56
2022-10-01T04:44:37.817Z,23.66
2022-10-01T04:47:06.752Z,23.71
2022-10-01T04:49:35.151Z,23.77
2022-10-01T04:52:05.117Z,23.77
2022-10-01T04:54:33.480Z,23.75
2022-10-01T04:57:01.784Z,23.72
2022-10-01T04:59:31.003Z,23.69
2022-10-01T05:02:00.788Z,23.64
2022-10-01T05:04:29.629Z,23.50
2022-10-01T05:06:58.131Z,23.40
2022-10-01T05:09:26.483Z,23.47
2022-10-01T05:11:54.972Z,23.47
2022-10-01T05:14:23.543Z,23.53
2022-10-01T05:16:51.878Z,23.65
2022-10-01T05:19:25.217Z,23.75
2022-10-01T05:21:56.017Z,23.87
2022-10-01T05:24:24.739Z,23.98
2022-10-01T05:26:54.050Z,23.93
2022-10-01T05:29:23.098Z,24.03
2022-10-01T05:31:51.601Z,24.10
2022-10-01T05:34:21.372Z,24.17
2022-10-01T05:36:49.984Z,24.04
2022-10-01T05:39:18.348Z,24.09
2022-10-01T05:41:46.675Z,24.12
2022-10-01T05:44:15.215Z,24.16
2022-10-01T05:46:43.814Z,24.18
2022-10-01T05:49:12.133Z,24.03
2022-10-01T05:51:42.420Z,23.99
2022-10-01T05:54:10.799Z,24.09
2022-10-01T05:56:39.420Z,23.99
2022-10-01T05:59:08.060Z,24.06
2022-10-01T06:01:36.581Z,24.11
2022-10-01T06:04:05.169Z,24.24
2022-10-01T06:06:33.767Z,24.28
2022-10-01T06:09:03.513Z,24.29
2022-10-01T06:11:31.906Z,24.35
2022-10-01T06:14:00.844Z,24.50
2022-10-01T06:16:29.470Z,24.63
2022-10-01T06:18:58.247Z,24.76
2022-10-01T06:21:27.467Z,24.90
2022-10-01T06:23:55.855Z,25.03
2022-10-01T06:26:26.321Z,25.09
2022-10-01T06:28:54.846Z,25.18
2022-10-01T06:31:23.316Z,25.25
2022-10-01T06:33:51.710Z,25.14
2022-10-01T06:36:20.304Z,25.01
2022-10-01T06:38:49.603Z,24.80
2022-10-01T06:41:18.658Z,24.91
2022-10-01T06:43:49.963Z,24.75
2022-10-01T06:46:18.549Z,24.58
2022-10-01T06:48:46.903Z,24.57
2022-10-01T06:51:15.467Z,24.43
2022-10-01T06:53:43.812Z,24.20
2022-10-01T06:56:12.313Z,24.09
2022-10-01T06:58:41.955Z,24.02
2022-10-01T07:01:12.002Z,24.12
2022-10-01T07:03:40.784Z,24.11
2022-10-01T07:06:11.325Z,24.22
2022-10-01T07:08:39.901Z,24.40
2022-10-01T07:11:08.657Z,24.41
2022-10-01T07:13:37.201Z,24.35
2022-10-01T07:16:06.022Z,24.30
2022-10-01T07:18:35.868Z,24.32
2022-10-01T07:21:04.432Z,24.43
2022-10-01T07:23:32.773Z,24.69
2022-10-01T07:26:01.080Z,24.88
2022-10-01T07:28:29.747Z,24.94
2022-10-01T07:31:01.084Z,24.79
2022-10-01T07:33:30.207Z,24.77
2022-10-01T07:36:03.479Z,24.87
2022-10-01T07:38:33.407Z,25.05
2022-10-01T07:41:03.541Z,25.04
2022-10-01T07:43:34.639Z,25.26
2022-10-01T07:46:03.648Z,25.59
2022-10-01T07:48:32.255Z,25.45
2022-10-01T07:51:02.301Z,25.37
2022-10-01T07:53:31.081Z,25.65
2022-10-01T07:56:02.321Z,25.71
2022-10-01T07:58:30.749Z,25.86
2022-10-01T08:01:00.667Z,25.95
2022-10-01T08:03:29.084Z,26.10
2022-10-01T08:05:57.462Z,25.80
2022-10-01T08:08:27.426Z,25.86
2022-10-01T08:10:55.884Z,25.65
2022-10-01T08:13:25.095Z,25.76
2022-10-01T08:15:54.914Z,25.88
2022-10-01T08:18:24.381Z,25.88
2022-10-01T08:20:52.789Z,26.03
2022-10-01T08:23:22.013Z,26.32
2022-10-01T08:25:51.731Z,26.42
2022-10-01T08:28:20.119Z,26.42
2022-10-01T08:30:48.764Z,26.56
2022-10-01T08:33:17.071Z,26.64
2022-10-01T08:35:45.819Z,26.72
2022-10-01T08:38:15.122Z,26.27
2022-10-01T08:40:47.278Z,26.17
2022-10-01T08:43:31.617Z,26.23
2022-10-01T08:46:04.401Z,26.08
2022-10-01T08:48:44.663Z,26.39
2022-10-01T08:51:23.043Z,26.57
2022-10-01T08:53:55.352Z,26.24
2022-10-01T08:56:28.425Z,26.25
2022-10-01T08:59:01.294Z,26.29
2022-10-01T09:01:31.333Z,26.57
2022-10-01T09:04:00.555Z,26.55
2022-10-01T09:06:29.359Z,26.49
2022-10-01T09:09:21.326Z,26.63
2022-10-01T09:12:01.176Z,26.36
2022-10-01T09:14:56.718Z,26.43
2022-10-01T09:17:41.651Z,26.69
2022-10-01T09:20:19.508Z,26.67
2022-10-01T09:22:56.091Z,26.92
2022-10-01T09:25:26.073Z,27.05
2022-10-01T09:28:03.664Z,27.20
2022-10-01T09:30:34.228Z,27.13
2022-10-01T09:33:12.073Z,27.31
2022-10-01T09:35:46.183Z,27.48
2022-10-01T09:38:22.359Z,27.60
2022-10-01T09:40:54.972Z,27.65
2022-10-01T09:43:25.331Z,27.50
2022-10-01T09:45:55.279Z,27.47
2022-10-01T09:48:32.841Z,27.49
2022-10-01T09:51:08.707Z,27.63
2022-10-01T09:53:43.205Z,27.69
2022-10-01T09:56:17.472Z,27.84
2022-10-01T09:58:52.979Z,27.98
2022-10-01T10:01:38.503Z,28.03
2022-10-01T10:04:07.162Z,28.00
2022-10-01T10:06:36.021Z,28.17
2022-10-01T10:09:05.803Z,28.27
2022-10-01T10:11:35.337Z,28.31
2022-10-01T10:14:05.639Z,28.22
2022-10-01T10:16:38.555Z,28.10
2022-10-01T10:19:16.670Z,28.24
2022-10-01T10:21:53.117Z,28.41
2022-10-01T10:24:27.520Z,28.52
2022-10-01T10:26:58.519Z,28.59
2022-10-01T10:29:30.480Z,28.52
2022-10-01T10:32:04.906Z,28.58
2022-10-01T10:34:38.323Z,28.26
2022-10-01T10:37:14.282Z,28.33
2022-10-01T10:39:47.249Z,28.28
2022-10-01T10:42:16.478Z,28.18
2022-10-01T10:44:49.351Z,28.07
2022-10-01T10:47:21.306Z,28.07
2022-10-01T10:49:54.940Z,27.97
2022-10-01T10:52:29.897Z,28.25
2022-10-01T10:55:00.185Z,28.27
2022-10-01T10:57:30.095Z,28.54
2022-10-01T11:00:00.535Z,28.67
2022-10-01T11:02:32.328Z,28.94
2022-10-01T11:05:04.634Z,29.07
2022-10-01T11:07:34.408Z,29.30
2022-10-01T11:10:26.656Z,29.61
2022-10-01T11:13:09.928Z,29.70
2022-10-01T11:15:52.657Z,29.84
2022-10-01T11:18:42.356Z,30.00
2022-10-01T11:21:29.674Z,29.98
2022-10-01T11:24:16.167Z,29.33
2022-10-01T11:26:55.328Z,29.26
2022-10-01T11:29:37.406Z,29.49
2022-10-01T11:32:19.646Z,29.45
2022-10-01T11:35:06.460Z,29.69
2022-10-01T11:37:49.468Z,29.77
2022-10-01T11:40:25.002Z,29.82
2022-10-01T11:42:59.672Z,29.91
2022-10-01T11:45:32.029Z,29.90
2022-10-01T11:48:06.420Z,29.81
2022-10-01T11:50:42.626Z,29.71
2022-10-01T11:53:18.058Z,29.56
2022-10-01T11:56:12.713Z,29.38
2022-10-01T11:58:54.304Z,29.40
2022-10-01T12:01:41.048Z,29.32
2022-10-01T12:04:25.001Z,29.42
2022-10-01T12:07:00.800Z,29.37
2022-10-01T12:09:37.995Z,29.30
2022-10-01T12:12:11.521Z,29.26
2022-10-01T12:14:46.989Z,29.33
2022-10-01T12:17:23.740Z,29.25
2022-10-01T12:19:55.454Z,29.13
2022-10-01T12:22:31.082Z,29.14
2022-10-01T12:24:59.420Z,29.16
2022-10-01T12:27:49.225Z,29.26
2022-10-01T12:30:21.441Z,29.28
2022-10-01T12:33:16.587Z,29.38
2022-10-01T12:35:56.564Z,29.26
2022-10-01T12:38:38.332Z,29.21
2022-10-01T12:41:20.709Z,29.30
2022-10-01T12:44:15.593Z,29.25
2022-10-01T12:46:51.668Z,29.10
2022-10-01T12:49:27.867Z,29.09
2022-10-01T12:52:06.057Z,29.16
2022-10-01T12:54:55.099Z,29.20
2022-10-01T12:57:37.092Z,29.13
2022-10-01T13:00:12.603Z,29.06
2022-10-01T13:03:14.284Z,29.16
2022-10-01T13:05:57.385Z,28.89
2022-10-01T13:08:45.118Z,28.19
2022-10-01T13:11:28.140Z,28.32
2022-10-01T13:13:58.475Z,28.40
2022-10-01T13:16:37.649Z,28.52
2022-10-01T13:19:14.478Z,28.47
2022-10-01T13:21:58.573Z,28.84
2022-10-01T13:24:37.331Z,28.74
2022-10-01T13:27:13.813Z,28.86
2022-10-01T13:29:53.829Z,28.62
2022-10-01T13:32:28.995Z,28.84
2022-10-01T13:34:59.382Z,28.89
2022-10-01T13:37:37.136Z,29.06
2022-10-01T13:40:20.516Z,28.99
2022-10-01T13:42:52.112Z,29.08
2022-10-01T13:45:41.721Z,28.46
2022-10-01T13:48:20.385Z,28.44
2022-10-01T13:51:03.571Z,28.09
2022-10-01T13:53:36.159Z,28.14
2022-10-01T13:56:05.842Z,28.31
2022-10-01T13:58:39.609Z,28.06
2022-10-01T14:01:29.515Z,28.24
2022-10-01T14:04:06.416Z,28.17
2022-10-01T14:06:43.480Z,28.33
2022-10-01T14:09:16.327Z,28.41
2022-10-01T14:12:05.929Z,28.20
2022-10-01T14:14:55.319Z,28.31
2022-10-01T14:17:28.842Z,28.24
2022-10-01T14:19:58.431Z,28.34
2022-10-01T14:22:53.769Z,28.53
2022-10-01T14:25:32.955Z,28.39
2022-10-01T14:28:39.032Z,28.41
2022-10-01T14:31:17.021Z,26.33
2022-10-01T14:34:19.805Z,25.79
2022-10-01T14:36:50.256Z,25.58
2022-10-01T14:39:20.500Z,25.09
2022-10-01T14:41:51.536Z,24.77
2022-10-01T14:44:25.531Z,24.33
2022-10-01T14:46:56.955Z,23.61
2022-10-01T14:49:27.335Z,23.36
2022-10-01T14:52:02.629Z,22.93
2022-10-01T14:54:35.692Z,23.27
2022-10-01T14:57:10.948Z,23.18
2022-10-01T14:59:41.857Z,23.28
2022-10-01T15:02:21.343Z,23.39
2022-10-01T15:04:51.881Z,23.09
2022-10-01T15:07:20.930Z,21.10
2022-10-01T15:09:50.459Z,21.33
2022-10-01T15:12:23.794Z,20.93
2022-10-01T15:14:55.574Z,21.42
2022-10-01T15:17:28.342Z,21.47
2022-10-01T15:19:58.688Z,21.62
2022-10-01T15:22:30.708Z,21.48
2022-10-01T15:25:02.128Z,21.48
2022-10-01T15:27:31.734Z,21.46
2022-10-01T15:30:01.249Z,20.86
2022-10-01T15:32:31.268Z,20.03
2022-10-01T15:35:02.710Z,19.17
2022-10-01T15:37:35.640Z,19.27
2022-10-01T15:40:08.202Z,19.57
2022-10-01T15:42:37.641Z,19.68
2022-10-01T15:45:23.971Z,19.97
2022-10-01T15:47:57.143Z,19.83
2022-10-01T15:50:28.511Z,20.06
2022-10-01T15:53:06.174Z,20.23
2022-10-01T15:55:43.808Z,20.39
2022-10-01T15:58:16.759Z,20.69
2022-10-01T16:00:59.949Z,21.00
2022-10-01T16:03:33.519Z,21.10
2022-10-01T16:06:04.160Z,21.13
2022-10-01T16:08:37.026Z,21.19
2022-10-01T16:11:20.548Z,21.38
2022-10-01T16:13:50.687Z,21.32
2022-10-01T16:16:26.009Z,21.46
2022-10-01T16:19:00.037Z,21.42
2022-10-01T16:21:29.045Z,21.33
2022-10-01T16:23:57.811Z,21.32
2022-10-01T16:26:40.337Z,21.39
2022-10-01T16:29:25.882Z,21.28
2022-10-01T16:31:55.112Z,21.25
2022-10-01T16:34:27.853Z,21.31
2022-10-01T16:36:56.197Z,21.37
2022-10-01T16:39:25.338Z,21.41
2022-10-01T16:42:19.003Z,21.42
2022-10-01T16:44:43.811Z,21.54
2022-10-01T16:47:13.166Z,21.66
2022-10-01T16:49:42.901Z,21.67
2022-10-01T16:52:16.735Z,21.67
2022-10-01T16:54:47.453Z,21.58
2022-10-01T16:57:16.865Z,21.53
2022-10-01T16:59:45.391Z,21.46
2022-10-01T17:02:15.634Z,21.65
2022-10-01T17:04:45.709Z,21.75
2022-10-01T17:07:14.186Z,21.33
2022-10-01T17:09:42.603Z,21.46
2022-10-01T17:12:11.317Z,21.64
2022-10-01T17:14:39.570Z,21.59
2022-10-01T17:17:07.949Z,21.61
2022-10-01T17:19:36.600Z,21.68
2022-10-01T17:22:06.357Z,21.37
2022-10-01T17:24:34.840Z,21.15
2022-10-01T17:27:03.422Z,21.12
2022-10-01T17:29:33.478Z,21.17
2022-10-01T17:32:02.082Z,21.09
2022-10-01T17:34:30.778Z,20.96
2022-10-01T17:37:00.415Z,21.14
2022-10-01T17:39:30.699Z,21.23
2022-10-01T17:41:59.387Z,20.91
2022-10-01T17:44:27.888Z,20.84
2022-10-01T17:46:56.332Z,20.90
2022-10-01T17:49:25.232Z,20.92
2022-10-01T17:51:53.923Z,21.13
2022-10-01T17:54:23.326Z,21.28
2022-10-01T17:56:54.925Z,21.28
2022-10-01T17:59:23.975Z,20.90
2022-10-01T18:01:53.296Z,20.82
2022-10-01T18:04:21.697Z,21.01
2022-10-01T18:06:52.255Z,20.99
2022-10-01T18:09:21.126Z,20.86
2022-10-01T18:11:49.892Z,20.55
2022-10-01T18:14:19.834Z,20.67
2022-10-01T18:16:48.389Z,20.74
2022-10-01T18:19:52.741Z,20.77
2022-10-01T18:22:13.555Z,20.76
2022-10-01T18:24:42.935Z,20.87
2022-10-01T18:27:11.597Z,20.78
2022-10-01T18:29:41.641Z,20.86
2022-10-01T18:32:16.862Z,20.68
2022-10-01T18:34:50.962Z,20.77
2022-10-01T18:37:27.668Z,20.99
2022-10-01T18:40:01.183Z,20.73
2022-10-01T18:42:38.473Z,20.32
2022-10-01T18:45:16.050Z,20.37
2022-10-01T18:47:55.812Z,20.05
2022-10-01T18:50:40.268Z,20.13
2022-10-01T18:53:22.298Z,19.95
2022-10-01T18:56:08.935Z,20.14
2022-10-01T18:59:02.504Z,20.25
2022-10-01T19:01:43.604Z,20.21
2022-10-01T19:04:30.176Z,20.42
2022-10-01T19:07:09.695Z,20.46
2022-10-01T19:09:51.973Z,20.71
2022-10-01T19:12:38.144Z,20.81
2022-10-01T19:15:20.847Z,20.78
2022-10-01T19:18:03.892Z,20.52
2022-10-01T19:20:48.723Z,20.50
2022-10-01T19:23:31.990Z,20.60
2022-10-01T19:26:08.948Z,20.60
2022-10-01T19:29:04.291Z,20.68
2022-10-01T19:31:42.759Z,20.78
2022-10-01T19:34:19.149Z,20.73
2022-10-01T19:36:54.699Z,20.57
2022-10-01T19:39:27.299Z,20.68
2022-10-01T19:42:00.513Z,20.60
2022-10-01T19:44:33.560Z,20.59
2022-10-01T19:47:15.721Z,20.78
2022-10-01T19:49:48.923Z,20.64
2022-10-01T19:52:19.985Z,20.42
2022-10-01T19:54:55.191Z,20.77
2022-10-01T19:57:25.757Z,20.96
2022-10-01T19:59:57.188Z,21.07
2022-10-01T20:02:33.988Z,21.24
2022-10-01T20:05:06.415Z,21.02
2022-10-01T20:07:42.395Z,21.15
2022-10-01T20:10:21.669Z,21.21
2022-10-01T20:13:02.261Z,21.41
2022-10-01T20:15:44.477Z,21.43
2022-10-01T20:18:28.023Z,21.53
2022-10-01T20:21:18.083Z,21.65
2022-10-01T20:23:55.141Z,21.65
2022-10-01T20:26:31.467Z,21.69
2022-10-01T20:29:14.941Z,21.58
2022-10-01T20:31:53.299Z,21.48
2022-10-01T20:34:29.317Z,21.46
2022-10-01T20:37:15.547Z,21.60
2022-10-01T20:39:50.215Z,21.58
2022-10-01T20:42:24.214Z,21.50
2022-10-01T20:44:54.088Z,21.55
2022-10-01T20:47:28.819Z,21.41
2022-10-01T20:50:09.127Z,21.54
2022-10-01T20:52:48.787Z,21.60
2022-10-01T20:55:26.593Z,21.65
2022-10-01T20:57:59.434Z,21.68
2022-10-01T21:00:29.522Z,21.70
2022-10-01T21:03:05.580Z,21.77
2022-10-01T21:05:38.435Z,21.78
2022-10-01T21:08:18.824Z,21.76
2022-10-01T21:10:51.640Z,21.76
2022-10-01T21:13:33.425Z,21.82
2022-10-01T21:16:16.203Z,21.59
2022-10-01T21:18:57.390Z,21.40
2022-10-01T21:21:33.995Z,21.19
2022-10-01T21:24:18.679Z,21.29
2022-10-01T21:27:01.692Z,21.36
2022-10-01T21:29:56.896Z,21.02
2022-10-01T21:32:39.496Z,21.08
2022-10-01T21:35:23.200Z,21.02
2022-10-01T21:38:01.668Z,21.03
2022-10-01T21:40:44.258Z,21.12
2022-10-01T21:43:24.040Z,21.16
2022-10-01T21:46:04.490Z,20.99
2022-10-01T21:48:41.485Z,20.68
2022-10-01T21:51:17.985Z,20.62
2022-10-01T21:54:03.955Z,20.79
2022-10-01T21:56:55.041Z,20.78
2022-10-01T21:59:40.452Z,20.77
2022-10-01T22:02:22.518Z,20.85
2022-10-01T22:04:56.712Z,20.61
2022-10-01T22:07:35.490Z,20.51
2022-10-01T22:10:11.456Z,20.68
2022-10-01T22:12:45.567Z,20.53
2022-10-01T22:15:24.495Z,20.60
2022-10-01T22:17:55.828Z,20.35
2022-10-01T22:20:29.158Z,20.54
2022-10-01T22:23:01.872Z,20.44
2022-10-01T22:25:33.251Z,20.59
2022-10-01T22:28:07.235Z,20.54
2022-10-01T22:30:41.512Z,20.56
2022-10-01T22:33:13.689Z,20.54
2022-10-01T22:35:50.056Z,20.51
2022-10-01T22:38:24.681Z,20.29
2022-10-01T22:41:01.602Z,20.34
2022-10-01T22:43:32.165Z,20.17
2022-10-01T22:46:25.789Z,20.27
2022-10-01T22:49:01.028Z,19.93
2022-10-01T22:51:51.021Z,19.81
2022-10-01T22:54:31.270Z,19.62
2022-10-01T22:57:14.491Z,19.79
2022-10-01T22:59:57.366Z,19.82
2022-10-01T23:02:33.359Z,19.96
2022-10-01T23:05:33.716Z,19.99
2022-10-01T23:08:13.320Z,20.10
2022-10-01T23:10:51.498Z,19.84
2022-10-01T23:13:27.704Z,19.73
2022-10-01T23:16:04.200Z,19.47
2022-10-01T23:18:47.013Z,19.55
2022-10-01T23:21:27.313Z,19.58
2022-10-01T23:24:03.776Z,19.43
2022-10-01T23:26:40.362Z,19.69
2022-10-01T23:29:36.669Z,19.62
2022-10-01T23:32:21.484Z,19.59
2022-10-01T23:35:00.687Z,19.65
2022-10-01T23:37:53.709Z,19.38
2022-10-01T23:40:26.801Z,19.19
2022-10-01T23:43:01.840Z,19.08
2022-10-01T23:45:35.140Z,18.58
2022-10-01T23:48:14.356Z,18.14
2022-10-01T23:50:49.263Z,17.85
2022-10-01T23:53:22.519Z,17.85
2022-10-01T23:56:18.963Z,17.98
2022-10-01T23:58:51.670Z,17.86
